Flight Track Log - Related Links

Times and Time Zones

All times are in EDT time to prevent confusion due to time zone crossing. See the DLH459 flight status page for this flight to view local times or setup timezone preferences in your user account.

Time Position Orientation Groundspeed Altitude Reporting Facility
EDT Latitude Longitude Course Direction KTS MPH feet Rate Location/Type
Fri 05:17:59 AM 57.8000 -75.4500 69° East 520 598 35,000  Level Montreal Center
Fri 05:18:59 AM 57.8500 -75.2000 69° East 520 598 35,000  Level Montreal Center
Fri 05:19:59 AM 57.8833 -74.9500 76° East 520 598 35,000  Level Montreal Center
Fri 05:20:59 AM 57.9167 -74.7000 76° East 510 587 35,000  Level Montreal Center
Fri 05:21:59 AM 57.9500 -74.4000 78° East 530 610 35,000  Level Montreal Center
Fri 05:23:01 AM 57.9833 -74.2000 72° East 530 610 35,000  Level Gander Center
Fri 05:24:01 AM 58.0333 -73.9333 70° East 530 610 35,000  Level Gander Center
Fri 05:25:01 AM 58.0833 -73.6500 71° East 530 610 35,000  Level Gander Center
Fri 05:26:01 AM 58.1000 -73.3833 83° East 530 610 35,000  Level Gander Center
Fri 05:27:01 AM 58.1500 -73.1000 71° East 530 610 35,000  Level Gander Center
Fri 05:28:01 AM 58.1833 -72.8333 77° East 540 621 35,000  Level Gander Center
Fri 05:29:01 AM 58.2167 -72.5500 77° East 540 621 35,000  Level Gander Center
Fri 05:30:01 AM 58.2500 -72.3000 76° East 530 610 35,000  Level Gander Center
Fri 05:31:01 AM 58.2667 -72.0167 83° East 530 610 35,000  Level Gander Center
Fri 05:32:01 AM 58.3167 -71.7500 70° East 540 621 35,000  Level Gander Center
Fri 05:33:01 AM 58.3500 -71.4667 77° East 540 621 35,000  Level Gander Center
Fri 05:34:01 AM 58.3833 -71.2000 76° East 540 621 35,000  Level Gander Center
Fri 05:35:01 AM 58.4000 -70.9167 83° East 540 621 35,000  Level Gander Center
Fri 05:36:01 AM 58.4500 -70.6333 71° East 540 621 35,000  Level Gander Center
Fri 05:37:01 AM 58.4833 -70.3500 77° East 540 621 35,000  Level Gander Center
Fri 05:38:01 AM 58.5000 -70.0667 83° East 540 621 35,000  Level Gander Center
Fri 05:39:01 AM 58.5500 -69.8167 69° East 540 621 35,000  Level Gander Center
Fri 05:40:01 AM 58.5833 -69.5167 78° East 540 621 35,000  Level Gander Center
Fri 05:41:01 AM 58.6333 -69.2333 71° East 530 610 35,000  Level Gander Center
Fri 05:42:01 AM 58.6667 -68.9833 76° East 540 621 35,000  Level Gander Center
Fri 05:42:38 AM 58.7000 -68.8000 71° East 540 621 35,000  Level Gander Center
Fri 05:43:38 AM 58.7333 -68.5500 75° East 540 621 35,000  Level Gander Center
Fri 05:44:38 AM 58.7667 -68.2667 77° East 540 621 35,000  Level Gander Center
Fri 05:45:38 AM 58.8167 -67.9833 71° East 540 621 35,000  Level Gander Center
Fri 05:46:38 AM 58.8500 -67.7000 77° East 540 621 35,000  Level Gander Center
Fri 05:47:38 AM 58.9000 -67.4167 71° East 540 621 35,000  Level Gander Center
Fri 05:48:38 AM 58.9167 -67.1667 83° East 540 621 35,000  Level Gander Center
Fri 05:49:38 AM 58.9667 -66.8500 73° East 540 621 35,000  Level Gander Center
Fri 05:50:38 AM 59.0000 -66.5500 78° East 530 610 35,000  Level Gander Center
Fri 05:51:38 AM 59.0500 -66.3000 69° East 530 610 35,000  Level Gander Center
Fri 05:52:38 AM 59.0667 -66.0167 83° East 530 610 35,000  Level Gander Center
Fri 05:53:38 AM 59.1167 -65.7333 71° East 530 610 35,000  Level Gander Center
Fri 05:54:38 AM 59.1333 -65.4333 84° East 540 621 35,000  Level Gander Center
Fri 05:55:38 AM 59.1833 -65.1833 69° East 540 621 35,000  Level Gander Center
Fri 05:56:38 AM 59.2000 -64.9000 83° East 530 610 35,000  Level Gander Center
Fri 05:57:38 AM 59.2500 -64.6000 72° East 530 610 35,000  Level Gander Center
Fri 05:58:38 AM 59.2667 -64.3500 82° East 530 610 35,000  Level Gander Center
Fri 05:59:38 AM 59.3000 -64.0500 78° East 530 610 35,000  Level Gander Center
Fri 06:00:38 AM 59.3667 -63.8000 62° Northeast 530 610 35,000  Level Gander Center
Fri 06:02:01 AM 59.4333 -63.4167 71° East 540 621 35,000  Level Gander Center
Fri 06:03:01 AM 59.4833 -63.1500 70° East 540 621 35,000 62 Level Gander Center
Fri 06:03:38 AM 59.5333 -62.9500 64° Northeast 540 621 35,100  Climbing Gander Center
Fri 06:04:38 AM 59.5667 -62.6667 77° East 540 621 35,000 -50 Descending Gander Center
Fri 06:05:38 AM 59.6167 -62.4000 70° East 540 621 35,000  Level Gander Center
Fri 06:06:38 AM 59.6667 -62.1333 70° East 530 610 35,000  Level Gander Center
Fri 06:07:38 AM 59.7000 -61.8500 77° East 530 610 35,000  Level Gander Center
Fri 06:08:38 AM 59.7500 -61.5833 69° East 540 621 35,000  Level Gander Center
Fri 06:09:38 AM 59.8000 -61.2833 72° East 540 621 35,000  Level Gander Center
Fri 06:10:38 AM 59.8333 -61.0167 76° East 540 621 35,000  Level Gander Center
Fri 06:11:38 AM 59.8833 -60.7167 72° East 540 621 35,000  Level Gander Center
Fri 06:12:38 AM 59.9333 -60.4500 69° East 530 610 35,000  Level Gander Center
Fri 06:13:38 AM 59.9833 -60.1500 71° East 540 621 35,000  Level Gander Center
Fri 06:14:38 AM 60.0167 -59.8500 77° East 540 621 35,000  Level Gander Center
Fri 06:15:38 AM 60.0167 -59.5500 90° East 540 621 35,000  Level Gander Center
Fri 06:16:38 AM 60.0333 -59.2500 84° East 540 621 35,000  Level Gander Center
Fri 06:17:38 AM 60.0500 -58.9500 84° East 540 621 35,000  Level Gander Center
Fri 06:18:38 AM 60.0667 -58.6500 84° East 540 621 35,000  Level Gander Center
Fri 06:19:38 AM 60.0667 -58.3500 90° East 540 621 35,000  Level Gander Center
Fri 06:20:38 AM 60.0667 -58.0500 90° East 550 633 35,000  Level Gander Center
Fri 06:21:38 AM 60.0667 -57.7500 90° East 540 621 35,000  Level Gander Center
Fri 06:22:38 AM 60.0833 -57.4500 84° East 540 621 35,000  Level Gander Center
Fri 06:23:38 AM 60.0833 -57.1500 90° East 540 621 35,000  Level Gander Center
Fri 06:24:38 AM 60.1000 -56.8500 84° East 540 621 35,000  Level Gander Center
Fri 06:25:38 AM 60.1000 -56.5833 90° East 540 621 35,000  Level Gander Center
Fri 06:26:38 AM 60.1000 -56.2833 90° East 530 610 35,000  Level Gander Center
Fri 06:27:38 AM 60.1000 -55.9667 90° East 530 610 35,000  Level Gander Center
Fri 06:29:01 AM 60.1000 -55.5667 90° East 540 621 35,000  Level Gander Center
Fri 06:30:01 AM 60.1000 -55.2667 90° East 530 610 35,000  Level Gander Center
Fri 06:31:01 AM 60.1000 -54.9667 90° East 540 621 35,000  Level Gander Center
Fri 06:32:01 AM 60.1167 -54.6667 84° East 540 621 35,000  Level Gander Center
Fri 06:33:01 AM 60.1167 -54.3667 90° East 540 621 35,000  Level Gander Center
Fri 06:33:38 AM 60.1000 -54.1667 99° East 550 633 35,000  Level Gander Center
Fri 06:34:38 AM 60.1000 -53.8667 90° East 550 633 35,000  Level Gander Center
Fri 06:35:38 AM 60.1000 -53.5667 90° East 550 633 35,000  Level Gander Center
Fri 06:36:38 AM 60.1000 -53.2667 90° East 540 621 35,000  Level Gander Center
Fri 06:37:38 AM 60.0833 -52.9667 96° East 540 621 35,000  Level Gander Center
Fri 06:38:38 AM 60.0833 -52.6333 90° East 540 621 35,000  Level Gander Center
Fri 06:39:38 AM 60.0833 -52.3333 90° East 550 633 35,000  Level Gander Center
Fri 06:40:38 AM 60.0667 -52.0333 96° East 540 621 35,000  Level Gander Center
Fri 06:41:38 AM 60.0667 -51.7667 90° East 540 621 35,000  Level Gander Center
Fri 06:42:38 AM 60.0500 -51.4333 96° East 540 621 35,000  Level Gander Center
Fri 06:43:38 AM 60.0500 -51.1667 90° East 540 621 35,000  Level Gander Center
Fri 06:44:38 AM 60.0333 -50.8667 96° East 530 610 35,000  Level Gander Center
Fri 06:45:38 AM 60.0333 -50.5667 90° East 530 610 35,000  Level Gander Center
Fri 06:46:38 AM 60.0333 -50.2667 90° East 530 610 35,000  Level Gander Center
Fri 06:47:38 AM 60.0000 -49.9667 102° East 540 621 35,000  Level Gander Center
Fri 06:48:38 AM 60.0167 -49.6667 84° East 540 621 35,000  Level Gander Center
Fri 06:49:00 AM 60.0000 -50.0000 86° East 544 626 35,000  Level ETMS Enhanced Traffic Management System
Fri 06:49:38 AM 60.0167 -49.3833 86° East 540 621 35,000  Level Gander Center
Fri 06:50:38 AM 60.0333 -49.0833 84° East 540 621 35,000  Level Gander Center
Fri 06:51:38 AM 60.0500 -48.7667 84° East 540 621 35,000  Level Gander Center
Fri 06:52:38 AM 60.0667 -48.5000 83° East 530 610 35,000  Level Gander Center
Fri 06:53:38 AM 60.0667 -48.2000 90° East 530 610 35,000  Level Gander Center
Fri 06:54:38 AM 60.0667 -47.9167 90° East 530 610 35,000  Level Gander Center
Fri 06:55:38 AM 60.0833 -47.6167 84° East 530 610 35,000  Level Gander Center
Fri 06:56:38 AM 60.0833 -47.3000 90° East 530 610 35,000  Level Gander Center
Fri 06:57:38 AM 60.0833 -47.0333 90° East 540 621 35,000  Level Gander Center
Fri 06:58:38 AM 60.0833 -46.7333 90° East 540 621 35,000  Level Gander Center
Fri 06:59:38 AM 60.0833 -46.4167 90° East 540 621 35,000  Level Gander Center
Fri 07:00:38 AM 60.0833 -46.1500 90° East 530 610 35,000  Level Gander Center
Fri 07:01:38 AM 60.0833 -45.8500 90° East 540 621 35,000  Level Gander Center
Fri 07:02:38 AM 60.0833 -45.5333 90° East 530 610 35,000  Level Gander Center
Fri 07:03:38 AM 60.0833 -45.2667 90° East 530 610 35,000  Level Gander Center
Fri 07:04:38 AM 60.1000 -44.9500 84° East 530 610 35,000  Level Gander Center
Fri 07:05:38 AM 60.1000 -44.6833 90° East 520 598 35,000  Level Gander Center
Fri 07:06:38 AM 60.1000 -44.3667 90° East 520 598 35,000  Level Gander Center
Fri 07:07:38 AM 60.1000 -44.1000 90° East 520 598 35,000  Level Gander Center
Fri 07:08:38 AM 60.1000 -43.8000 90° East 530 610 35,000  Level Gander Center
Fri 07:09:38 AM 60.1000 -43.5167 90° East 540 621 35,000  Level Gander Center
Fri 07:10:38 AM 60.0833 -43.2167 96° East 550 633 35,000  Level Gander Center
Fri 07:11:38 AM 60.0833 -42.9167 90° East 560 644 35,000 50 Level Gander Center
Fri 07:12:38 AM 60.0667 -42.6000 96° East 570 656 35,100  Climbing Gander Center
Fri 07:13:38 AM 60.0667 -42.3000 90° East 560 644 35,000 -50 Descending Gander Center
Fri 07:14:38 AM 60.0667 -41.9833 90° East 560 644 35,000  Level Gander Center
Fri 07:15:38 AM 60.0667 -41.6833 90° East 550 633 35,000  Level Gander Center
Fri 07:16:38 AM 60.0500 -41.3833 96° East 540 621 35,000  Level Gander Center
Fri 07:17:38 AM 60.0333 -41.0833 96° East 540 621 35,000  Level Gander Center
Fri 07:18:38 AM 60.0333 -40.8000 90° East 540 621 35,000  Level Gander Center
Fri 07:19:38 AM 60.0167 -40.5000 96° East 530 610 35,000  Level Gander Center
Fri 07:20:38 AM 60.0167 -40.2000 90° East 530 610 35,000  Level Gander Center
Fri 07:21:38 AM 60.0000 -39.9333 97° East 530 610 35,000  Level Gander Center
Fri 07:22:38 AM 60.0000 -39.6167 90° East 540 621 35,000  Level Gander Center
Fri 07:23:38 AM 60.0167 -39.3333 86° East 550 633 35,000  Level Gander Center
Fri 07:23:58 AM 60.0000 -40.0000 86° East 544 626 35,000  Level ETMS Enhanced Traffic Management System
Fri 07:24:38 AM 60.0167 -39.0167 90° East 550 633 35,000  Level Gander Center
Fri 07:25:38 AM 60.0333 -38.7333 83° East 540 621 35,000  Level Gander Center
Fri 07:26:38 AM 60.0500 -38.4500 83° East 540 621 35,000  Level Gander Center
Fri 07:27:38 AM 60.0500 -38.1333 90° East 540 621 35,000  Level Gander Center
Fri 07:28:38 AM 60.0500 -37.8500 90° East 540 621 35,000  Level Gander Center
Fri 07:29:38 AM 60.0667 -37.5667 83° East 540 621 35,000  Level Gander Center
Fri 07:30:38 AM 60.0667 -37.2500 90° East 550 633 35,000  Level Gander Center
Fri 07:31:38 AM 60.0833 -36.9500 84° East 550 633 35,000  Level Gander Center
Fri 07:32:38 AM 60.0667 -36.6500 96° East 550 633 35,000  Level Gander Center
Fri 07:33:38 AM 60.0833 -36.3500 84° East 550 633 35,000  Level Gander Center
Fri 07:34:38 AM 60.0833 -36.0333 90° East 550 633 35,000  Level Gander Center
Fri 07:35:38 AM 60.0833 -35.7667 90° East 550 633 35,000  Level Gander Center
Fri 07:36:38 AM 60.0833 -35.4333 90° East 550 633 35,000  Level Gander Center
Fri 07:37:38 AM 60.0833 -35.1500 90° East 540 621 35,000  Level Gander Center
Fri 07:38:38 AM 60.0833 -34.8333 90° East 550 633 35,000 21 Level Gander Center
Fri 07:40:00 AM 60.0832 -34.4539 90° East  Level FlightAware Approximate
Fri 07:47:00 AM 60.0654 -32.5111 90° East  Level FlightAware Approximate
Fri 07:48:00 AM 60.0605 -32.2338 92° East  Level FlightAware Approximate
Fri 07:49:00 AM 60.0550 -31.9566 92° East  Level FlightAware Approximate
Fri 07:50:00 AM 60.0490 -31.6795 92° East  Level FlightAware Approximate
Fri 07:51:00 AM 60.0424 -31.4025 93° East  Level FlightAware Approximate
Fri 07:52:00 AM 60.0352 -31.1256 93° East  Level FlightAware Approximate
Fri 07:53:00 AM 60.0275 -30.8488 93° East  Level FlightAware Approximate
Fri 07:54:00 AM 60.0191 -30.5722 93° East  Level FlightAware Approximate
Fri 07:55:00 AM 60.0102 -30.2957 94° East  Level FlightAware Approximate
Fri 07:56:00 AM 60.0007 -30.0193 94° East  Level FlightAware Approximate
Fri 07:57:00 AM 60.0091 -29.7430 86° East  Level FlightAware Approximate
Fri 07:58:00 AM 60.0183 -29.4666 86° East  Level FlightAware Approximate
Fri 07:59:00 AM 60.0269 -29.1900 86° East  Level FlightAware Approximate
Fri 08:00:00 AM 60.0350 -28.9132 87° East  Level FlightAware Approximate
Fri 08:01:00 AM 60.0425 -28.6364 87° East  Level FlightAware Approximate
Fri 08:02:00 AM 60.0494 -28.3594 87° East  Level FlightAware Approximate
Fri 08:03:00 AM 60.0562 -28.0823 87° East  Level FlightAware Approximate
Fri 08:04:00 AM 60.0624 -27.8052 87° East  Level FlightAware Approximate
Fri 08:05:00 AM 60.0681 -27.5279 88° East  Level FlightAware Approximate
Fri 08:06:00 AM 60.0732 -27.2505 88° East  Level FlightAware Approximate
Fri 08:07:00 AM 60.0777 -26.9731 88° East  Level FlightAware Approximate
Fri 08:08:00 AM 60.0816 -26.6956 88° East  Level FlightAware Approximate
Fri 08:09:00 AM 60.0849 -26.4180 88° East  Level FlightAware Approximate
Fri 08:10:00 AM 60.0877 -26.1404 89° East  Level FlightAware Approximate
Fri 08:11:00 AM 60.0899 -25.8628 89° East  Level FlightAware Approximate
Fri 08:12:00 AM 60.0915 -25.5851 89° East  Level FlightAware Approximate
Fri 08:13:00 AM 60.0925 -25.3074 89° East  Level FlightAware Approximate
Fri 08:14:00 AM 60.0930 -25.0296 90° East  Level FlightAware Approximate
Fri 08:15:00 AM 60.0928 -24.7519 90° East  Level FlightAware Approximate
Fri 08:16:00 AM 60.0921 -24.4742 90° East  Level FlightAware Approximate
Fri 08:17:00 AM 60.0908 -24.1965 90° East  Level FlightAware Approximate
Fri 08:18:00 AM 60.0889 -23.9188 91° East  Level FlightAware Approximate
Fri 08:19:00 AM 60.0864 -23.6411 91° East  Level FlightAware Approximate
Fri 08:20:00 AM 60.0834 -23.3636 91° East  Level FlightAware Approximate
Fri 08:21:00 AM 60.0797 -23.0860 91° East  Level FlightAware Approximate
Fri 08:22:00 AM 60.0755 -22.8085 92° East  Level FlightAware Approximate
Fri 08:23:00 AM 60.0707 -22.5312 92° East  Level FlightAware Approximate
Fri 08:24:00 AM 60.0653 -22.2538 92° East  Level FlightAware Approximate
Fri 08:25:00 AM 60.0594 -21.9766 92° East  Level FlightAware Approximate
Fri 08:26:00 AM 60.0528 -21.6995 93° East  Level FlightAware Approximate
Fri 08:27:00 AM 60.0457 -21.4225 93° East  Level FlightAware Approximate
Fri 08:28:00 AM 60.0380 -21.1457 93° East  Level FlightAware Approximate
Fri 08:29:00 AM 60.0298 -20.8689 93° East  Level FlightAware Approximate
Fri 08:30:00 AM 60.0209 -20.5923 94° East  Level FlightAware Approximate
Fri 08:31:00 AM 60.0115 -20.3159 94° East  Level FlightAware Approximate
Fri 08:32:00 AM 60.0015 -20.0396 94° East  Level FlightAware Approximate
Fri 08:33:00 AM 59.9626 -19.7750 108° East  Level FlightAware Approximate
Fri 08:34:00 AM 59.9185 -19.5129 108° East  Level FlightAware Approximate
Fri 08:35:00 AM 59.8738 -19.2516 109° East  Level FlightAware Approximate
Fri 08:36:00 AM 59.8287 -18.9910 109° East  Level FlightAware Approximate
Fri 08:37:00 AM 59.7830 -18.7310 109° East  Level FlightAware Approximate
Fri 08:38:00 AM 59.7368 -18.4718 109° East  Level FlightAware Approximate
Fri 08:39:00 AM 59.6901 -18.2133 110° East  Level FlightAware Approximate
Fri 08:40:00 AM 59.6429 -17.9556 110° East  Level FlightAware Approximate
Fri 08:41:00 AM 59.5952 -17.6985 110° East  Level FlightAware Approximate
Fri 08:42:00 AM 59.5470 -17.4422 110° East  Level FlightAware Approximate
Fri 08:43:00 AM 59.4983 -17.1867 110° East  Level FlightAware Approximate
Fri 08:44:00 AM 59.4491 -16.9318 111° Southeast  Level FlightAware Approximate
Fri 08:45:00 AM 59.3994 -16.6777 111° Southeast  Level FlightAware Approximate
Fri 08:46:00 AM 59.3492 -16.4244 111° Southeast  Level FlightAware Approximate
Fri 08:47:00 AM 59.2985 -16.1718 111° Southeast  Level FlightAware Approximate
Fri 08:48:00 AM 59.2473 -15.9200 112° Southeast  Level FlightAware Approximate
Fri 08:49:00 AM 59.1957 -15.6689 112° Southeast  Level FlightAware Approximate
Fri 08:50:00 AM 59.1435 -15.4186 112° Southeast  Level FlightAware Approximate
Fri 08:51:00 AM 59.0909 -15.1691 112° Southeast  Level FlightAware Approximate
Fri 08:52:00 AM 59.0378 -14.9203 112° Southeast  Level FlightAware Approximate
Fri 08:53:00 AM 58.9842 -14.6723 113° Southeast  Level FlightAware Approximate
Fri 08:54:00 AM 58.9302 -14.4250 113° Southeast  Level FlightAware Approximate
Fri 08:55:00 AM 58.8757 -14.1786 113° Southeast  Level FlightAware Approximate
Fri 08:56:00 AM 58.8207 -13.9329 113° Southeast  Level FlightAware Approximate
Fri 08:57:00 AM 58.7653 -13.6880 113° Southeast  Level FlightAware Approximate
Fri 08:58:00 AM 58.7094 -13.4439 114° Southeast  Level FlightAware Approximate
Fri 08:59:00 AM 58.6530 -13.2006 114° Southeast  Level FlightAware Approximate
Fri 09:00:00 AM 58.5962 -12.9580 114° Southeast  Level FlightAware Approximate
Fri 09:01:00 AM 58.5389 -12.7163 114° Southeast  Level FlightAware Approximate
Fri 09:02:00 AM 58.4811 -12.4753 115° Southeast  Level FlightAware Approximate
Fri 09:03:00 AM 58.4230 -12.2352 115° Southeast  Level FlightAware Approximate
Fri 09:04:00 AM 58.3643 -11.9958 115° Southeast  Level FlightAware Approximate
Fri 09:05:00 AM 58.3052 -11.7572 115° Southeast  Level FlightAware Approximate
Fri 09:06:00 AM 58.2457 -11.5194 115° Southeast  Level FlightAware Approximate
Fri 09:07:00 AM 58.1858 -11.2825 116° Southeast  Level FlightAware Approximate
Fri 09:08:00 AM 58.1254 -11.0463 116° Southeast  Level FlightAware Approximate
Fri 09:09:00 AM 58.0645 -10.8109 116° Southeast  Level FlightAware Approximate
Fri 09:10:00 AM 58.0033 -10.5764 116° Southeast  Level FlightAware Approximate
Fri 09:11:00 AM 57.9416 -10.3426 116° Southeast  Level FlightAware Approximate
Fri 09:12:00 AM 57.8795 -10.1096 117° Southeast  Level FlightAware Approximate
Fri 09:12:23 AM 58.6333 -8.9741 117° Southeast 480 552 37,000  Level FlightAware UK
Fri 09:12:53 AM 58.5952 -8.8700 125° Southeast 482 555 37,000  Level FlightAware UK
Fri 09:13:23 AM 58.5569 -8.7659 125° Southeast 482 555 37,000  Level FlightAware UK
Fri 09:13:53 AM 58.5183 -8.6621 125° Southeast 482 555 37,000  Level FlightAware UK
Fri 09:14:23 AM 58.4799 -8.5582 125° Southeast 482 555 37,000  Level FlightAware UK
Fri 09:14:53 AM 58.4413 -8.4546 125° Southeast 482 555 37,000  Level FlightAware UK
Fri 09:15:23 AM 58.4024 -8.3513 126° Southeast 484 557 37,000  Level FlightAware UK
Fri 09:15:53 AM 58.3635 -8.2477 126° Southeast 484 557 37,000  Level FlightAware UK
Fri 09:16:23 AM 58.3247 -8.1441 125° Southeast 482 555 37,000  Level FlightAware UK
Fri 09:16:53 AM 58.2855 -8.0411 126° Southeast 482 555 37,000  Level FlightAware UK
Fri 09:17:12 AM 58.2621 -7.9795 125° Southeast 478 550 37,000  Level FlightAware ADS-B (EGPH / EDI)
Fri 09:17:23 AM 58.2463 -7.9386 126° Southeast 482 555 37,000  Level FlightAware UK
Fri 09:17:53 AM 58.2071 -7.8361 126° Southeast 482 555 37,000  Level FlightAware UK
Fri 09:18:23 AM 58.1679 -7.7341 125° Southeast 482 555 37,000  Level FlightAware UK
Fri 09:18:53 AM 58.1286 -7.6315 126° Southeast 482 555 37,000  Level FlightAware UK
Fri 09:19:27 AM 58.0869 -7.5241 126° Southeast 482 555 37,000  Level FlightAware ADS-B (EGPH / EDI)
Fri 09:20:18 AM 58.0184 -7.3483 126° Southeast 482 555 37,000  Level FlightAware ADS-B (EGPH / EDI)
Fri 09:20:49 AM 57.9789 -7.2475 127° Southeast 480 552 37,000  Level FlightAware ADS-B (EGPH / EDI)
Fri 09:21:19 AM 57.9381 -7.1438 127° Southeast 480 552 37,000  Level FlightAware ADS-B (EGPH / EDI)
Fri 09:21:51 AM 57.8958 -7.0368 127° Southeast 481 554 37,000  Level FlightAware ADS-B
Fri 09:22:28 AM 57.8467 -6.9132 127° Southeast 482 555 37,000  Level FlightAware ADS-B (EGPH / EDI)
Fri 09:23:06 AM 57.7961 -6.7867 127° Southeast 481 554 37,000  Level FlightAware ADS-B (EGPH / EDI)
Fri 09:23:37 AM 57.7562 -6.6871 127° Southeast 481 554 37,000  Level FlightAware ADS-B
Fri 09:24:08 AM 57.7202 -6.5975 127° Southeast 481 554 37,000  Level FlightAware ADS-B (EGPH / EDI)
Fri 09:24:39 AM 57.6734 -6.4818 127° Southeast 482 555 37,000  Level FlightAware ADS-B (EGPH / EDI)
Fri 09:25:09 AM 57.6318 -6.3794 127° Southeast 482 555 37,000  Level FlightAware ADS-B
Fri 09:25:39 AM 57.5954 -6.2903 127° Southeast 483 556 37,000  Level FlightAware ADS-B
Fri 09:26:13 AM 57.5481 -6.1748 128° Southeast 485 558 37,000  Level FlightAware ADS-B (EGPH / EDI)
Fri 09:26:45 AM 57.5032 -6.0658 128° Southeast 486 559 37,000  Level FlightAware ADS-B (LFPO / ORY)
Fri 09:27:16 AM 57.4595 -5.9601 127° Southeast 482 555 37,000  Level FlightAware ADS-B
Fri 09:27:53 AM 57.4102 -5.8414 128° Southeast 486 559 37,000  Level FlightAware ADS-B (EGPH / EDI)
Fri 09:28:23 AM 57.3691 -5.7428 128° Southeast 486 559 37,000  Level FlightAware ADS-B (EGPH / EDI)
Fri 09:28:53 AM 57.3246 -5.6361 128° Southeast 486 559 37,000  Level FlightAware UK
Fri 09:29:00 AM 57.3211 -5.6281 127° Southeast 487 560 37,000  Level FlightAware ADS-B
Fri 09:29:09 AM 57.3053 -5.5877 122° Southeast 485 558 37,000  Level FlightAware ADS-B
Fri 09:29:39 AM 57.2698 -5.4864 123° Southeast 489 563 37,000  Level FlightAware ADS-B
Fri 09:29:55 AM 57.2488 -5.4272 123° Southeast 489 563 37,000  Level FlightAware ADS-B (EGPH / EDI)
Fri 09:30:10 AM 57.2315 -5.3785 122° Southeast 486 559 37,000  Level FlightAware ADS-B
Fri 09:30:44 AM 57.1894 -5.2602 123° Southeast 489 563 37,000  Level FlightAware ADS-B
Fri 09:30:52 AM 57.1783 -5.2291 122° Southeast 485 558 37,000  Level FlightAware ADS-B (EGPD / ABZ)
Fri 09:31:23 AM 57.1424 -5.1286 123° Southeast 484 557 37,000  Level FlightAware ADS-B
Fri 09:31:46 AM 57.1114 -5.0420 123° Southeast 485 558 37,000  Level FlightAware ADS-B
Fri 09:32:19 AM 57.0703 -4.9281 124° Southeast 489 563 37,000  Level FlightAware ADS-B
Fri 09:32:52 AM 57.0403 -4.8452 124° Southeast 489 563 37,000  Level FlightAware ADS-B (LFPO / ORY)
Fri 09:33:26 AM 56.9865 -4.6973 124° Southeast 489 563 37,000  Level FlightAware ADS-B (EGPD / ABZ)
Fri 09:33:59 AM 56.9452 -4.5842 124° Southeast 489 563 37,000  Level FlightAware ADS-B
Fri 09:34:29 AM 56.9075 -4.4814 124° Southeast 489 563 37,000  Level FlightAware ADS-B (EGPH / EDI)
Fri 09:34:59 AM 56.8696 -4.3788 124° Southeast 490 564 37,000  Level FlightAware ADS-B
Fri 09:35:29 AM 56.8342 -4.2832 124° Southeast 490 564 37,000  Level FlightAware ADS-B
Fri 09:35:59 AM 56.7936 -4.1741 124° Southeast 491 565 37,000  Level FlightAware ADS-B
Fri 09:36:32 AM 56.7516 -4.0615 124° Southeast 492 566 37,000  Level FlightAware ADS-B
Fri 09:37:02 AM 56.7133 -3.9596 124° Southeast 491 565 37,000  Level FlightAware ADS-B
Fri 09:37:39 AM 56.6660 -3.8342 124° Southeast 490 564 37,000  Level FlightAware ADS-B
Fri 09:38:11 AM 56.6251 -3.7264 125° Southeast 488 562 37,000  Level FlightAware ADS-B (EGPH / EDI)
Fri 09:38:47 AM 56.5790 -3.6052 125° Southeast 490 564 37,000  Level FlightAware ADS-B
Fri 09:39:18 AM 56.5456 -3.5178 125° Southeast 489 563 37,000  Level FlightAware ADS-B
Fri 09:39:40 AM 56.5121 -3.4305 124° Southeast 485 558 37,000  Level FlightAware ADS-B (EGPD / ABZ)
Fri 09:39:56 AM 56.4915 -3.3767 124° Southeast 486 559 37,000  Level FlightAware ADS-B
Fri 09:40:11 AM 56.4720 -3.3264 124° Southeast 487 560 37,000  Level FlightAware ADS-B
Fri 09:40:29 AM 56.4487 -3.2659 125° Southeast 492 566 37,000  Level FlightAware ADS-B
Fri 09:40:42 AM 56.4317 -3.2223 125° Southeast 492 566 37,000  Level FlightAware ADS-B
Fri 09:41:12 AM 56.3913 -3.1181 125° Southeast 495 570 37,000  Level FlightAware ADS-B
Fri 09:41:33 AM 56.3637 -3.0474 124° Southeast 491 565 37,000  Level FlightAware ADS-B (EGPD / ABZ)
Fri 09:41:45 AM 56.3492 -3.0104 125° Southeast 491 565 37,000  Level FlightAware ADS-B
Fri 09:41:58 AM 56.3334 -2.9701 125° Southeast 497 572 37,000  Level FlightAware ADS-B
Fri 09:42:30 AM 56.2951 -2.8725 125° Southeast 496 571 37,000  Level FlightAware ADS-B (EGPH / EDI)
Fri 09:43:01 AM 56.2487 -2.7549 125° Southeast 498 573 37,000  Level FlightAware ADS-B
Fri 09:43:34 AM 56.2035 -2.6408 126° Southeast 498 573 37,000  Level FlightAware ADS-B (EGPD / ABZ)
Fri 09:44:04 AM 56.1636 -2.5404 126° Southeast 497 572 37,000  Level FlightAware ADS-B
Fri 09:44:38 AM 56.1184 -2.4272 126° Southeast 495 570 37,000  Level FlightAware ADS-B (EGPH / EDI)
Fri 09:45:09 AM 56.0773 -2.3249 126° Southeast 492 566 37,000  Level FlightAware ADS-B
Fri 09:45:39 AM 56.0455 -2.2460 126° Southeast 492 566 37,000  Level FlightAware ADS-B (EGNT / NCL)
Fri 09:46:09 AM 55.9976 -2.1277 126° Southeast 493 567 37,000  Level FlightAware ADS-B
Fri 09:46:39 AM 55.9590 -2.0326 126° Southeast 491 565 37,000  Level FlightAware ADS-B (EGPH / EDI)
Fri 09:47:09 AM 55.9178 -1.9317 126° Southeast 489 563 37,000  Level FlightAware ADS-B (EGNT / NCL)
Fri 09:47:39 AM 55.8794 -1.8377 126° Southeast 488 562 37,000  Level FlightAware ADS-B (EGNT / NCL)
Fri 09:48:09 AM 55.8408 -1.7438 126° Southeast 489 563 37,000  Level FlightAware ADS-B (EGNT / NCL)
Fri 09:48:39 AM 55.7981 -1.6403 126° Southeast 490 564 37,000  Level FlightAware ADS-B (EGPH / EDI)
Fri 09:49:11 AM 55.7551 -1.5367 126° Southeast 491 565 37,000  Level FlightAware ADS-B (EGPD / ABZ)
Fri 09:49:42 AM 55.7134 -1.4365 127° Southeast 491 565 37,000  Level FlightAware ADS-B
Fri 09:50:12 AM 55.6770 -1.3493 127° Southeast 490 564 37,000  Level FlightAware ADS-B
Fri 09:50:42 AM 55.6325 -1.2432 127° Southeast 490 564 37,000  Level FlightAware ADS-B
Fri 09:51:12 AM 55.5920 -1.1470 127° Southeast 490 564 37,000  Level FlightAware ADS-B
Fri 09:51:42 AM 55.5514 -1.0511 127° Southeast 489 563 37,000  Level FlightAware ADS-B (EGPH / EDI)
Fri 09:52:13 AM 55.5108 -0.9554 127° Southeast 491 565 37,000  Level FlightAware ADS-B (EGPH / EDI)
Fri 09:52:43 AM 55.4687 -0.8564 126° Southeast 487 560 37,000  Level FlightAware ADS-B
Fri 09:53:13 AM 55.4277 -0.7606 126° Southeast 488 562 37,000  Level FlightAware ADS-B
Fri 09:53:24 AM 55.4127 -0.7255 126° Southeast 488 562 37,000  Level FlightAware ADS-B
Fri 09:53:34 AM 55.4003 -0.6968 127° Southeast 493 567 37,000  Level FlightAware ADS-B (EGPH / EDI)
Fri 09:54:06 AM 55.3550 -0.5917 127° Southeast 495 570 37,000  Level FlightAware ADS-B
Fri 09:54:12 AM 55.3467 -0.5725 126° Southeast 490 564 37,000  Level FlightAware ADS-B
Fri 09:54:43 AM 55.3040 -0.4736 127° Southeast 490 564 37,000  Level FlightAware ADS-B
Fri 09:55:20 AM 55.2529 -0.3559 127° Southeast 493 567 37,000  Level FlightAware ADS-B (EGNT / NCL)
Fri 09:55:51 AM 55.2156 -0.2708 127° Southeast 489 563 37,000  Level FlightAware ADS-B (EGNT / NCL)
Fri 09:56:21 AM 55.1691 -0.1646 127° Southeast 487 560 37,000  Level FlightAware ADS-B (EGNT / NCL)
Fri 09:56:52 AM 55.1281 -0.0713 128° Southeast 486 559 37,000  Level FlightAware ADS-B (EGNT / NCL)
Fri 09:57:13 AM 55.0994 -0.0064 127° Southeast 480 552 37,000  Level FlightAware ADS-B
Fri 09:57:43 AM 55.0570 0.0894 127° Southeast 481 554 37,000  Level FlightAware ADS-B
Fri 09:58:19 AM 55.0323 0.1451 128° Southeast 487 560 37,000  Level FlightAware ADS-B (EGNY)
Fri 09:58:51 AM 54.9689 0.2872 128° Southeast 488 562 37,000  Level FlightAware ADS-B (EGNY)
Fri 09:59:22 AM 54.9207 0.3948 128° Southeast 486 559 37,000  Level FlightAware ADS-B (EGNT / NCL)
Fri 09:59:52 AM 54.8847 0.4747 128° Southeast 488 562 37,000  Level FlightAware ADS-B (EGNY)
Fri 10:00:02 AM 54.8653 0.5176 127° Southeast 482 555 37,000  Level FlightAware ADS-B
Fri 10:00:32 AM 54.8321 0.5911 128° Southeast 487 560 37,000  Level FlightAware ADS-B (EGNY)
Fri 10:00:53 AM 54.7946 0.6737 127° Southeast 483 556 37,000  Level FlightAware ADS-B
Fri 10:01:23 AM 54.7598 0.7502 128° Southeast 487 560 37,000  Level FlightAware ADS-B (EGNY)
Fri 10:01:53 AM 54.7196 0.8382 128° Southeast 483 556 37,000  Level FlightAware ADS-B (EGNY)
Fri 10:02:23 AM 54.6699 0.9468 128° Southeast 477 549 37,000  Level FlightAware ADS-B
Fri 10:02:53 AM 54.6285 1.0366 128° Southeast 474 545 37,000  Level FlightAware ADS-B
Fri 10:03:23 AM 54.5886 1.1228 128° Southeast 472 543 37,000  Level FlightAware ADS-B
Fri 10:03:53 AM 54.5461 1.2147 128° Southeast 472 543 37,000  Level FlightAware ADS-B
Fri 10:04:35 AM 54.5406 1.2266 133° Southeast 485 558 37,000  Level FlightAware ADS-B (EGNT / NCL)
Fri 10:05:33 AM 54.3958 1.4978 135° Southeast 484 557 37,000  Level FlightAware ADS-B
Fri 10:06:03 AM 54.3475 1.5795 135° Southeast 486 559 37,000  Level FlightAware ADS-B
Fri 10:06:33 AM 54.3005 1.6587 135° Southeast 487 560 37,000  Level FlightAware ADS-B
Fri 10:07:03 AM 54.2509 1.7442 132° Southeast 486 559 37,000  Level FlightAware ADS-B
Fri 10:07:07 AM 54.2494 1.7470 133° Southeast 492 566 37,000  Level FlightAware ADS-B
Fri 10:07:37 AM 54.2044 1.8427 127° Southeast 486 559 37,000  Level FlightAware ADS-B (EGNT / NCL)
Fri 10:07:51 AM 54.1853 1.8851 128° Southeast 486 559 37,000  Level FlightAware ADS-B (EGNT / NCL)
Fri 10:08:23 AM 54.1400 1.9851 127° Southeast 484 557 37,000  Level FlightAware ADS-B
Fri 10:08:34 AM 54.1276 2.0124 127° Southeast 488 562 37,000  Level FlightAware ADS-B (EGLF / FAB)
Fri 10:08:42 AM 54.1413 1.9821 128° Southeast 488 562 37,000  Level FlightAware ADS-B (EGNT / NCL)
Fri 10:09:21 AM 54.0582 2.1665 128° Southeast 488 562 37,000  Level FlightAware UK
Fri 10:09:34 AM 54.0839 2.1100 127° Southeast 488 562 37,000  Level FlightAware ADS-B (EGLF / FAB)
Fri 10:10:42 AM 53.9518 2.4030 127° Southeast 479 551 37,000  Level FlightAware ADS-B
Fri 10:10:50 AM 53.9395 2.4300 127° Southeast 479 551 37,000  Level FlightAware ADS-B
Fri 10:11:25 AM 53.8932 2.5318 128° Southeast 483 556 37,000  Level FlightAware ADS-B (EGLF / FAB)
Fri 10:12:06 AM 53.8741 2.5735 128° Southeast 483 556 37,000  Level FlightAware ADS-B (EGLF / FAB)
Fri 10:12:42 AM 53.7871 2.7636 127° Southeast 476 548 37,000  Level FlightAware ADS-B
Fri 10:12:54 AM 53.7707 2.7991 127° Southeast 476 548 37,000  Level FlightAware ADS-B
Fri 10:13:33 AM 53.7189 2.9113 128° Southeast 481 554 37,000  Level FlightAware ADS-B
Fri 10:14:03 AM 53.6740 3.0082 128° Southeast 480 552 37,000  Level FlightAware UK
Fri 10:14:14 AM 53.6630 3.0319 128° Southeast 481 554 37,000  Level FlightAware ADS-B
Fri 10:14:49 AM 53.6151 3.1347 128° Southeast 481 554 37,000  Level FlightAware ADS-B (EGLC / LCY)
Fri 10:15:19 AM 53.5739 3.2226 128° Southeast 481 554 37,000  Level FlightAware ADS-B (EGLC / LCY)
Fri 10:15:52 AM 53.5451 3.2842 127° Southeast 476 548 37,000  Level FlightAware ADS-B (EGLC / LCY)
Fri 10:16:39 AM 53.4599 3.4651 127° Southeast 482 555 37,000  Level FlightAware UK
Fri 10:17:16 AM 53.4267 3.5315 132° Southeast 487 560 37,000  Level FlightAware ADS-B (EHGR / GLZ)
Fri 10:17:28 AM 53.3886 3.6016 131° Southeast 488 562 37,000  Level FlightAware UK
Fri 10:17:58 AM 53.3440 3.6861 132° Southeast 488 562 37,000  Level FlightAware UK
Fri 10:18:15 AM 53.3219 3.7282 132° Southeast 489 563 37,000  Level FlightAware ADS-B (EHGR / GLZ)
Fri 10:19:12 AM 53.2363 3.8884 131° Southeast 485 558 37,000  Level FlightAware ADS-B (EHGR / GLZ)
Fri 10:19:57 AM 53.1731 4.0062 132° Southeast 489 563 37,000  Level FlightAware ADS-B
Fri 10:20:27 AM 53.1189 4.1068 132° Southeast 489 563 37,000  Level FlightAware ADS-B
Fri 10:21:00 AM 53.0737 4.1905 131° Southeast 485 558 37,000  Level FlightAware ADS-B (EHGR / GLZ)
Fri 10:21:18 AM 53.0495 4.2351 132° Southeast 491 565 37,000  Level FlightAware ADS-B
Fri 10:22:02 AM 52.9796 4.3635 131° Southeast 488 562 37,000  Level FlightAware ADS-B (EHGR / GLZ)
Fri 10:22:13 AM 52.9628 4.3943 132° Southeast 493 567 37,000  Level FlightAware ADS-B (RJSC / GAJ)
Fri 10:22:52 AM 52.9032 4.5031 132° Southeast 488 562 37,000  Level FlightAware ADS-B (EHGR / GLZ)
Fri 10:23:31 AM 52.8419 4.6146 132° Southeast 493 567 37,000  Level FlightAware ADS-B
Fri 10:24:02 AM 52.7944 4.7007 133° Southeast 493 567 37,000  Level FlightAware ADS-B
Fri 10:24:34 AM 52.7744 4.7367 132° Southeast 494 568 37,000  Level FlightAware ADS-B
Fri 10:25:04 AM 52.6979 4.8762 132° Southeast 498 573 37,000  Level FlightAware UK
Fri 10:25:17 AM 52.6786 4.9092 133° Southeast 500 575 37,000  Level FlightAware ADS-B
Fri 10:25:52 AM 52.6253 5.0044 133° Southeast 503 579 37,000  Level FlightAware ADS-B (EHGR / GLZ)
Fri 10:26:31 AM 52.5622 5.1170 133° Southeast 507 583 37,000  Level FlightAware ADS-B (RJSC / GAJ)
Fri 10:27:08 AM 52.5064 5.2160 133° Southeast 510 587 37,000  Level FlightAware ADS-B
Fri 10:27:28 AM 52.4727 5.2754 133° Southeast 510 587 37,000  Level FlightAware ADS-B
Fri 10:27:42 AM 52.4487 5.3179 132° Southeast 505 581 37,000  Level FlightAware ADS-B (EGHH / BOH)
Fri 10:28:12 AM 52.4150 5.3772 133° Southeast 512 589 37,000  Level FlightAware ADS-B
Fri 10:28:44 AM 52.3489 5.4932 133° Southeast 514 592 37,000  Level FlightAware ADS-B
Fri 10:29:16 AM 52.2985 5.5812 133° Southeast 518 596 37,000  Level FlightAware ADS-B (EHGR / GLZ)
Fri 10:29:46 AM 52.2494 5.6667 133° Southeast 520 598 37,000  Level FlightAware ADS-B (EHGR / GLZ)
Fri 10:30:24 AM 52.1870 5.7750 133° Southeast 521 600 37,000  Level FlightAware ADS-B
Fri 10:30:54 AM 52.1457 5.8463 133° Southeast 524 603 37,000  Level FlightAware ADS-B
Fri 10:31:24 AM 52.0875 5.9465 133° Southeast 527 606 37,000  Level FlightAware ADS-B
Fri 10:32:05 AM 52.0254 6.0531 133° Southeast 533 613 37,000  Level FlightAware ADS-B (RJSC / GAJ)
Fri 10:32:40 AM 51.9522 6.1728 138° Southeast 546 628 37,000  Level FlightAware ADS-B
Fri 10:33:10 AM 51.9016 6.2462 138° Southeast 544 626 37,000  Level FlightAware ADS-B (EHGR / GLZ)
Fri 10:33:42 AM 51.8426 6.3322 138° Southeast 527 606 37,000  Level FlightAware ADS-B (EHGR / GLZ)
Fri 10:34:19 AM 51.7756 6.4297 138° Southeast 525 604 37,000  Level FlightAware ADS-B (LRBS / BBU)
Fri 10:34:55 AM 51.7146 6.5182 138° Southeast 523 602 37,000  Level FlightAware ADS-B (EDKL)
Fri 10:35:35 AM 51.6841 6.5623 138° Southeast 523 602 37,000  Level FlightAware ADS-B (EDKL)
Fri 10:36:27 AM 51.5457 6.7613 138° Southeast 522 601 37,000  Level FlightAware ADS-B (EHGR / GLZ)
Fri 10:37:12 AM 51.4630 6.8792 138° Southeast 521 600 37,000  Level FlightAware ADS-B (EHGR / GLZ)
Fri 10:37:45 AM 51.4055 6.9611 138° Southeast 522 601 37,000  Level FlightAware ADS-B (EDKL)
Fri 10:38:18 AM 51.3440 7.0483 139° Southeast 526 605 37,000  Level FlightAware ADS-B (LRBS / BBU)
Fri 10:38:39 AM 51.3056 7.1023 139° Southeast 530 610 37,000  Level FlightAware ADS-B
Fri 10:39:11 AM 51.2449 7.1879 139° Southeast 534 615 37,000  Level FlightAware ADS-B
Fri 10:39:55 AM 51.1672 7.2966 139° Southeast 533 613 37,000  Level FlightAware ADS-B (EDKL)
Fri 10:40:25 AM 51.1138 7.3714 139° Southeast 531 611 37,000  Level FlightAware ADS-B (EDKL)
Fri 10:40:59 AM 51.0492 7.4612 139° Southeast 532 612 37,000  Level FlightAware ADS-B (EHGR / GLZ)
Fri 10:41:29 AM 50.9902 7.5430 139° Southeast 530 610 37,000  Level FlightAware ADS-B
Fri 10:42:03 AM 50.9294 7.6269 138° Southeast 522 601 37,000  Level FlightAware ADS-B (EHGR / GLZ)
Fri 10:42:35 AM 50.8778 7.6981 139° Southeast 532 612 37,000  Level FlightAware ADS-B (EDKL)
Fri 10:43:06 AM 50.8258 7.7695 139° Southeast 534 615 37,000  Level FlightAware ADS-B (EDKL)
Fri 10:44:25 AM 50.6716 7.9799 139° Southeast 528 608 37,000  Level FlightAware ADS-B (EDKL)
Fri 10:44:55 AM 50.6183 8.0520 139° Southeast 521 600 37,000  Level FlightAware ADS-B (EDKL)
Fri 10:45:35 AM 50.5455 8.1506 139° Southeast 521 600 37,000  Level FlightAware ADS-B (EDKL)
Fri 10:47:15 AM 50.4053 8.3387 139° Southeast 520 598 37,000  Level FlightAware ADS-B (EDKL)
Fri 10:47:45 AM 50.3086 8.4677 140° Southeast 520 598 37,000  Level FlightAware ADS-B (EDKL)
Fri 10:49:08 AM 50.1497 8.6782 140° Southeast 520 598 37,000  Level FlightAware ADS-B (EDDM / MUC)
Fri 10:50:14 AM 50.0315 8.8362 137° Southeast 517 595 37,000 -275 Level FlightAware ADS-B (EDDM / MUC)
Fri 10:51:19 AM 49.9182 8.9964 138° Southeast 521 600 36,400 -844 Descending FlightAware ADS-B (EDDM / MUC)
Fri 10:52:00 AM 49.8741 9.1274 132° Southeast  Level Estimated
Fri 10:52:29 AM 49.7912 9.1743 138° Southeast 523 602 35,100  Level FlightAware ADS-B (EDDM / MUC)
Fri 10:53:30 AM 49.6825 9.3258 138° Southeast 513 590 34,500 -750 Descending FlightAware ADS-B (ETSE)
Fri 10:54:21 AM 49.5954 9.4556 132° Southeast 518 596 33,700 -1,034 Descending FlightAware ADS-B (EDDM / MUC)
Fri 10:54:57 AM 49.5401 9.5525 132° Southeast 518 596 33,000 -1,250 Descending FlightAware ADS-B (EDDM / MUC)
Fri 10:55:33 AM 49.4831 9.6521 132° Southeast 515 593 32,200 -1,164 Descending FlightAware ADS-B (ETSE)
Fri 10:56:04 AM 49.4312 9.7423 132° Southeast 515 593 31,700 -1,180 Descending FlightAware ADS-B (ETSE)
Fri 10:56:34 AM 49.3875 9.8180 131° Southeast 505 581 31,000 -1,412 Descending FlightAware ADS-B (ETSE)
Fri 10:56:38 AM 49.3798 9.8314 131° Southeast 502 578 30,900 -1,286 Descending FlightAware ADS-B (EDDM / MUC)
Fri 10:57:16 AM 49.3248 9.9261 132° Southeast 493 567 30,100 -1,412 Descending FlightAware ADS-B (ETSE)
Fri 10:57:46 AM 49.2764 10.0095 132° Southeast 489 563 29,300 -1,385 Descending FlightAware ADS-B (ETSE)
Fri 10:58:21 AM 49.2261 10.0957 132° Southeast 482 555 28,600 -1,371 Descending FlightAware ADS-B (EDDM / MUC)
Fri 10:58:56 AM 49.1718 10.1886 132° Southeast 473 544 27,700 -1,624 Descending FlightAware ADS-B (ETSE)
Fri 10:59:46 AM 49.1014 10.3060 134° Southeast 460 529 26,300 -1,350 Descending FlightAware ADS-B (ETSE)
Fri 11:00:16 AM 49.0574 10.3758 134° Southeast 458 527 25,900 -938 Descending FlightAware ADS-B (EDDM / MUC)
Fri 11:00:50 AM 49.0064 10.4574 134° Southeast 440 506 25,300 -1,477 Descending FlightAware ADS-B (ETSE)
Fri 11:01:21 AM 48.9632 10.5265 133° Southeast 438 504 24,300 -2,613 Descending FlightAware ADS-B (ETSE)
Fri 11:01:52 AM 48.9195 10.5960 134° Southeast 443 510 22,600 -2,164 Descending FlightAware ADS-B (ETSE)
Fri 11:02:22 AM 48.8784 10.6613 134° Southeast 415 478 22,100 -1,183 Descending FlightAware ADS-B (ETSE)
Fri 11:03:03 AM 48.8338 10.7320 134° Southeast 407 468 21,200 -1,459 Descending FlightAware ADS-B (ETSE)
Fri 11:03:36 AM 48.7880 10.8043 134° Southeast 402 463 20,300 -1,594 Descending FlightAware ADS-B (ETSE)
Fri 11:04:07 AM 48.7422 10.8762 134° Southeast 385 443 19,500 -1,143 Descending FlightAware ADS-B (ETSE)
Fri 11:05:00 AM 48.6812 10.9684 138° Southeast 360 414 18,700 -988 Descending FlightAware ADS-B (ETSE)
Fri 11:05:32 AM 48.6403 11.0243 138° Southeast 358 412 18,100 -1,091 Descending FlightAware ADS-B (EDDM / MUC)
Fri 11:06:06 AM 48.5995 11.0799 138° Southeast 358 412 17,500 -1,135 Descending FlightAware ADS-B (EDDM / MUC)
Fri 11:06:46 AM 48.5526 11.1435 138° Southeast 354 407 16,700 -1,111 Descending FlightAware ADS-B (EDDM / MUC)
Fri 11:07:27 AM 48.5012 11.2132 138° Southeast 347 399 16,000 -973 Descending FlightAware ADS-B (EDDM / MUC)
Fri 11:08:00 AM 48.4621 11.2661 138° Southeast 331 381 15,500 -1,317 Descending FlightAware ADS-B (ETSE)
Fri 11:08:08 AM 48.4388 11.2976 138° Southeast 326 375 15,100 -750 Descending FlightAware ADS-B (KGHG)
Fri 11:08:32 AM 48.4281 11.3160 123° Southeast 325 374 15,100 -364 Level FlightAware ADS-B (ETSE)
Fri 11:08:41 AM 48.4221 11.3318 110° East 324 373 14,900 -1,579 Descending FlightAware ADS-B (ETSE)
Fri 11:08:51 AM 48.4203 11.3392 94° East 327 376 14,600 -1,263 Descending FlightAware ADS-B (ETSE)
Fri 11:09:19 AM 48.4206 11.4159 83° East 322 371 14,100 -952 Descending FlightAware ADS-B (EDDM / MUC)
Fri 11:09:54 AM 48.4262 11.4857 83° East 315 362 13,600 -1,014 Descending FlightAware ADS-B (ETSE)
Fri 11:10:30 AM 48.4330 11.5716 83° East 310 357 12,900 -1,029 Descending FlightAware ADS-B (EDDM / MUC)
Fri 11:11:04 AM 48.4389 11.6451 83° East 300 345 12,400 -923 Descending FlightAware ADS-B (ETSE)
Fri 11:11:35 AM 48.4436 11.7073 83° East 294 338 11,900 -951 Descending FlightAware ADS-B (EDDM / MUC)
Fri 11:12:26 AM 48.4513 11.8073 84° East 291 335 11,100 -1,037 Descending FlightAware ADS-B (EDDM / MUC)
Fri 11:12:56 AM 48.4559 11.8660 84° East 283 326 10,500 -1,556 Descending FlightAware ADS-B (EDDM / MUC)
Fri 11:13:20 AM 48.4596 11.9165 84° East 276 318 9,700 -2,040 Descending FlightAware ADS-B (EDDM / MUC)
Fri 11:13:46 AM 48.4634 11.9674 84° East 270 311 8,800 -2,000 Descending FlightAware ADS-B (ETSE)
Fri 11:14:05 AM 48.4658 11.9992 84° East 272 313 8,200 -1,385 Descending FlightAware ADS-B (ETSE)
Fri 11:14:25 AM 48.4687 12.0383 84° East 268 308 7,900 -1,200 Descending FlightAware ADS-B (ETSE)
Fri 11:14:40 AM 48.4704 12.0605 84° East 266 306 7,500 -1,742 Descending FlightAware ADS-B (EDDM / MUC)
Fri 11:14:56 AM 48.4728 12.0934 84° East 260 299 7,000 -1,714 Descending FlightAware ADS-B (ETSE)
Fri 11:15:15 AM 48.4707 12.1295 114° Southeast 249 287 6,500 -1,655 Descending FlightAware ADS-B (ETSE)
Fri 11:15:25 AM 48.4684 12.1355 130° Southeast 249 287 6,200 -1,714 Descending FlightAware ADS-B (EDDM / MUC)
Fri 11:15:36 AM 48.4547 12.1529 154° Southeast 245 282 5,900 -1,429 Descending FlightAware ADS-B (ETSE)
Fri 11:15:46 AM 48.4439 12.1566 179° South 238 274 5,700 -1,200 Descending FlightAware ADS-B (ETSE)
Fri 11:15:56 AM 48.4332 12.1539 203° Southwest 235 270 5,500 -1,412 Descending FlightAware ADS-B (ETSE)
Fri 11:16:03 AM 48.4266 12.1486 216° Southwest 232 267 5,300 -1,579 Descending FlightAware ADS-B (EDDM / MUC)
Fri 11:16:15 AM 48.4180 12.1348 233° Southwest 227 261 5,000 -977 Descending FlightAware ADS-B (ETSE)
Fri 11:16:46 AM 48.3988 12.0960 234° Southwest 217 250 4,600 -706 Descending FlightAware ADS-B (ETSE)
Fri 11:17:06 AM 48.3873 12.0719 240° Southwest 216 249 4,400 -462 Descending FlightAware ADS-B (ETSE)
Fri 11:17:25 AM 48.3835 12.0465 269° West 210 242 4,300 -486 Descending FlightAware ADS-B (ETSE)
Fri 11:17:43 AM 48.3823 12.0195 263° West 198 228 4,100 -474 Descending FlightAware ADS-B (ETSE)
Fri 11:18:03 AM 48.3805 12.0009 260° West 186 214 4,000 -947 Descending FlightAware ADS-B (EDDM / MUC)
Fri 11:18:21 AM 48.3783 11.9793 267° West 183 211 3,500 -1,273 Descending FlightAware ADS-B (ETSE)
Fri 11:18:36 AM 48.3775 11.9602 264° West 185 213 3,300 -882 Descending FlightAware ADS-B (EDDM / MUC)
Fri 11:18:55 AM 48.3749 11.9278 262° West 174 200 3,000 -1,111 Descending FlightAware ADS-B (ETSE)
Fri 11:19:03 AM 48.3739 11.9173 264° West 164 189 2,800 -968 Descending FlightAware ADS-B (ETSE)
Fri 11:19:26 AM 48.3723 11.8927 264° West 160 184 2,500 -878 Descending FlightAware ADS-B (ETSE)
Fri 11:19:44 AM 48.3709 11.8740 264° West 158 182 2,200 -915 Descending FlightAware ADS-B (EDDM / MUC)
Fri 11:20:25 AM 48.3675 11.8295 263° West 151 174 1,600 -878 Descending FlightAware ADS-B (ETSE)

Login

Don't have an account? Register now (free) for customized features, flight alerts, and more!